createdAt,value
2023-08-03T00:00:25.068Z,2.81
2023-08-03T00:02:19.502Z,2.90
2023-08-03T00:04:04.623Z,2.60
2023-08-03T00:05:52.872Z,2.84
2023-08-03T00:07:26.407Z,2.60
2023-08-03T00:09:07.273Z,2.67
2023-08-03T00:10:40.814Z,2.60
2023-08-03T00:12:26.026Z,2.99
2023-08-03T00:14:01.853Z,2.92
2023-08-03T00:15:35.540Z,2.88
2023-08-03T00:17:11.237Z,2.80
2023-08-03T00:18:59.814Z,3.15
2023-08-03T00:20:33.200Z,2.72
2023-08-03T00:22:02.339Z,2.68
2023-08-03T00:23:35.900Z,2.67
2023-08-03T00:25:09.080Z,2.57
2023-08-03T00:26:42.641Z,2.84
2023-08-03T00:28:37.345Z,2.90
2023-08-03T00:30:25.166Z,2.57
2023-08-03T00:32:05.296Z,2.80
2023-08-03T00:33:38.878Z,2.87
2023-08-03T00:35:12.099Z,2.78
2023-08-03T00:36:58.578Z,2.83
2023-08-03T00:38:31.995Z,2.59
2023-08-03T00:39:53.949Z,2.71
2023-08-03T00:41:18.119Z,3.00
2023-08-03T00:43:03.313Z,3.04
2023-08-03T00:44:39.436Z,2.78
2023-08-03T00:46:12.921Z,2.97
2023-08-03T00:47:57.856Z,2.57
2023-08-03T00:49:31.696Z,2.50
2023-08-03T00:51:04.824Z,2.87
2023-08-03T00:52:51.324Z,2.59
2023-08-03T00:54:44.807Z,2.66
2023-08-03T00:56:18.506Z,2.70
2023-08-03T00:57:53.875Z,2.52
2023-08-03T00:59:25.334Z,2.83
2023-08-03T01:00:56.614Z,2.50
2023-08-03T01:02:20.921Z,2.52
2023-08-03T01:03:58.128Z,2.72
2023-08-03T01:05:27.951Z,2.52
2023-08-03T01:07:01.112Z,2.81
2023-08-03T01:08:25.213Z,2.28
2023-08-03T01:10:05.995Z,2.65
2023-08-03T01:11:28.128Z,2.68
2023-08-03T01:12:51.888Z,2.69
2023-08-03T01:14:25.481Z,2.66
2023-08-03T01:16:06.198Z,2.89
2023-08-03T01:17:47.606Z,2.50
2023-08-03T01:19:25.179Z,2.65
2023-08-03T01:20:46.635Z,2.57
2023-08-03T01:22:11.105Z,2.83
2023-08-03T01:23:40.514Z,2.69
2023-08-03T01:25:17.134Z,2.63
2023-08-03T01:26:52.906Z,2.75
2023-08-03T01:28:26.541Z,2.38
2023-08-03T01:30:12.058Z,2.58
2023-08-03T01:32:01.657Z,2.73
2023-08-03T01:33:48.921Z,2.58
2023-08-03T01:35:15.210Z,2.67
2023-08-03T01:37:00.148Z,2.58
2023-08-03T01:38:36.107Z,2.62
2023-08-03T01:40:11.776Z,2.62
2023-08-03T01:41:49.584Z,2.21
2023-08-03T01:43:34.703Z,2.84
2023-08-03T01:45:03.819Z,2.80
2023-08-03T01:46:37.217Z,2.58
2023-08-03T01:48:10.703Z,2.50
2023-08-03T01:49:55.709Z,2.66
2023-08-03T01:51:37.187Z,2.33
2023-08-03T01:53:18.613Z,2.85
2023-08-03T01:55:03.702Z,2.65
2023-08-03T01:56:38.642Z,2.34
2023-08-03T01:58:24.432Z,2.69
2023-08-03T01:59:57.901Z,2.36
2023-08-03T02:01:43.281Z,2.52
2023-08-03T02:03:28.558Z,2.76
2023-08-03T02:05:10.168Z,2.51
2023-08-03T02:06:55.296Z,2.35
2023-08-03T02:08:40.282Z,2.58
2023-08-03T02:10:24.271Z,2.66
2023-08-03T02:12:05.884Z,2.53
2023-08-03T02:13:35.319Z,2.45
2023-08-03T02:15:20.188Z,2.33
2023-08-03T02:16:56.519Z,2.51
2023-08-03T02:18:51.542Z,2.64
2023-08-03T02:20:25.077Z,2.68
2023-08-03T02:21:58.476Z,2.32
2023-08-03T02:23:43.498Z,2.56
2023-08-03T02:25:18.777Z,2.58
2023-08-03T02:27:01.453Z,2.58
2023-08-03T02:28:35.075Z,2.28
2023-08-03T02:30:20.391Z,2.67
2023-08-03T02:31:56.125Z,2.61
2023-08-03T02:33:29.645Z,2.27
2023-08-03T02:35:14.618Z,2.81
2023-08-03T02:36:50.314Z,2.69
2023-08-03T02:38:23.891Z,2.81
2023-08-03T02:39:57.118Z,2.42
2023-08-03T02:41:44.357Z,2.54
2023-08-03T02:43:30.037Z,2.34
2023-08-03T02:45:14.980Z,2.59
2023-08-03T02:47:05.333Z,2.44
2023-08-03T02:48:49.918Z,2.23
2023-08-03T02:50:14.670Z,2.54
2023-08-03T02:51:47.780Z,2.40
2023-08-03T02:53:21.456Z,2.45
2023-08-03T02:55:02.093Z,2.33
2023-08-03T02:56:28.469Z,2.37
2023-08-03T02:58:01.684Z,2.59
2023-08-03T02:59:42.241Z,2.26
2023-08-03T03:01:36.463Z,2.25
2023-08-03T03:03:23.812Z,2.60
2023-08-03T03:05:08.949Z,2.18
2023-08-03T03:06:46.440Z,2.40
2023-08-03T03:08:27.241Z,2.44
2023-08-03T03:10:00.880Z,2.58
2023-08-03T03:11:35.224Z,2.38
2023-08-03T03:13:20.437Z,2.46
2023-08-03T03:14:44.299Z,2.21
2023-08-03T03:16:30.506Z,2.30
2023-08-03T03:18:15.552Z,2.51
2023-08-03T03:19:48.829Z,2.21
2023-08-03T03:21:24.043Z,2.26
2023-08-03T03:22:50.252Z,2.69
2023-08-03T03:24:35.941Z,2.26
2023-08-03T03:26:21.292Z,2.40
2023-08-03T03:28:06.640Z,2.00
2023-08-03T03:29:37.544Z,2.26
2023-08-03T03:31:22.875Z,1.97
2023-08-03T03:32:46.926Z,2.42
2023-08-03T03:34:10.708Z,2.29
2023-08-03T03:35:57.060Z,2.39
2023-08-03T03:37:30.994Z,2.11
2023-08-03T03:39:11.652Z,2.45
2023-08-03T03:40:45.333Z,2.23
2023-08-03T03:42:19.046Z,2.22
2023-08-03T03:43:52.490Z,2.15
2023-08-03T03:45:33.559Z,2.43
2023-08-03T03:47:07.309Z,2.28
2023-08-03T03:48:55.256Z,2.42
2023-08-03T03:50:37.330Z,2.23
2023-08-03T03:52:22.409Z,2.45
2023-08-03T03:53:44.120Z,2.18
2023-08-03T03:55:18.983Z,2.30
2023-08-03T03:57:04.015Z,2.15
2023-08-03T03:58:29.278Z,2.12
2023-08-03T04:00:09.992Z,2.06
2023-08-03T04:01:38.925Z,2.00
2023-08-03T04:03:12.185Z,2.18
2023-08-03T04:05:05.501Z,2.17
2023-08-03T04:06:35.196Z,2.18
2023-08-03T04:08:20.228Z,2.02
2023-08-03T04:10:00.658Z,1.94
2023-08-03T04:11:36.369Z,1.93
2023-08-03T04:13:00.117Z,2.22
2023-08-03T04:14:29.358Z,2.05
2023-08-03T04:16:05.464Z,1.96
2023-08-03T04:17:46.795Z,2.32
2023-08-03T04:19:29.794Z,1.92
2023-08-03T04:21:15.308Z,2.25
2023-08-03T04:22:48.998Z,2.30
2023-08-03T04:24:43.564Z,2.04
2023-08-03T04:26:17.546Z,2.28
2023-08-03T04:27:54.508Z,2.17
2023-08-03T04:29:28.466Z,2.09
2023-08-03T04:31:03.928Z,2.08
2023-08-03T04:32:33.994Z,2.12
2023-08-03T04:34:09.839Z,2.08
2023-08-03T04:36:00.133Z,2.00
2023-08-03T04:37:26.846Z,2.46
2023-08-03T04:39:00.281Z,2.21
2023-08-03T04:40:35.998Z,2.41
2023-08-03T04:42:21.217Z,2.31
2023-08-03T04:44:02.030Z,2.16
2023-08-03T04:45:51.576Z,2.13
2023-08-03T04:47:27.265Z,2.18
2023-08-03T04:49:14.494Z,2.61
2023-08-03T04:51:01.066Z,2.31
2023-08-03T04:52:30.776Z,2.10
2023-08-03T04:54:15.796Z,2.28
2023-08-03T04:56:00.033Z,2.10
2023-08-03T04:57:45.359Z,2.37
2023-08-03T04:59:22.080Z,2.19
2023-08-03T05:00:59.055Z,2.03
2023-08-03T05:02:33.000Z,1.97
2023-08-03T05:04:09.490Z,2.19
2023-08-03T05:05:45.120Z,1.93
2023-08-03T05:07:22.098Z,2.33
2023-08-03T05:09:07.141Z,2.12
2023-08-03T05:11:01.059Z,2.12
2023-08-03T05:12:48.717Z,2.51
2023-08-03T05:14:42.341Z,2.26
2023-08-03T05:16:27.782Z,2.19
2023-08-03T05:18:15.651Z,2.20
2023-08-03T05:19:45.145Z,5.16
2023-08-03T05:21:25.825Z,1.95
2023-08-03T05:22:47.619Z,2.04
2023-08-03T05:24:23.311Z,2.10
2023-08-03T05:26:05.116Z,2.30
2023-08-03T05:27:40.842Z,2.20
2023-08-03T05:29:14.542Z,2.14
2023-08-03T05:30:55.237Z,2.37
2023-08-03T05:32:24.616Z,2.42
2023-08-03T05:34:00.523Z,2.17
2023-08-03T05:35:53.793Z,2.06
2023-08-03T05:37:31.174Z,2.19
2023-08-03T05:39:11.771Z,2.25
2023-08-03T05:40:56.997Z,2.23
2023-08-03T05:42:38.186Z,2.05
2023-08-03T05:44:02.261Z,2.03
2023-08-03T05:45:35.848Z,2.08
2023-08-03T05:47:16.881Z,2.24
2023-08-03T05:48:51.054Z,2.10
2023-08-03T05:50:27.051Z,2.07
2023-08-03T05:52:10.257Z,2.23
2023-08-03T05:53:43.659Z,2.37
2023-08-03T05:55:19.802Z,2.14
2023-08-03T05:57:04.940Z,2.27
2023-08-03T05:58:38.585Z,2.37
2023-08-03T06:00:23.917Z,2.33
2023-08-03T06:01:45.778Z,2.13
2023-08-03T06:03:15.354Z,1.95
2023-08-03T06:05:00.374Z,1.89
2023-08-03T06:06:33.714Z,2.68
2023-08-03T06:08:07.537Z,2.57
2023-08-03T06:09:48.232Z,2.36
2023-08-03T06:11:36.545Z,5.95
2023-08-03T06:12:58.675Z,2.13
2023-08-03T06:14:35.517Z,2.39
2023-08-03T06:16:05.209Z,2.37
2023-08-03T06:17:50.465Z,2.28
2023-08-03T06:19:17.597Z,2.14
2023-08-03T06:21:02.563Z,1.87
2023-08-03T06:22:47.620Z,1.72
2023-08-03T06:24:37.301Z,2.06
2023-08-03T06:26:11.017Z,2.33
2023-08-03T06:27:56.322Z,2.43
2023-08-03T06:29:36.676Z,2.09
2023-08-03T06:31:10.366Z,2.11
2023-08-03T06:32:31.895Z,2.31
2023-08-03T06:34:17.045Z,2.12
2023-08-03T06:35:59.526Z,2.26
2023-08-03T06:37:21.565Z,2.34
2023-08-03T06:38:57.115Z,2.32
2023-08-03T06:40:19.235Z,2.11
2023-08-03T06:42:04.099Z,2.07
2023-08-03T06:43:35.671Z,2.11
2023-08-03T06:45:20.957Z,2.37
2023-08-03T06:46:54.471Z,2.05
2023-08-03T06:48:21.456Z,2.31
2023-08-03T06:49:56.859Z,2.10
2023-08-03T06:51:46.739Z,2.31
2023-08-03T06:53:30.794Z,2.48
2023-08-03T06:55:15.725Z,2.23
2023-08-03T06:57:00.852Z,2.22
2023-08-03T06:58:32.050Z,2.39
2023-08-03T07:00:12.732Z,2.49
2023-08-03T07:02:02.465Z,2.12
2023-08-03T07:03:43.452Z,1.93
2023-08-03T07:05:19.449Z,2.14
2023-08-03T07:06:56.359Z,2.09
2023-08-03T07:08:18.765Z,2.11
2023-08-03T07:09:54.501Z,2.05
2023-08-03T07:11:39.435Z,2.13
2023-08-03T07:13:24.743Z,1.86
2023-08-03T07:15:06.814Z,2.15
2023-08-03T07:16:52.943Z,2.15
2023-08-03T07:18:19.763Z,1.98
2023-08-03T07:19:43.869Z,2.39
2023-08-03T07:21:10.445Z,2.23
2023-08-03T07:22:55.223Z,2.15
2023-08-03T07:24:30.982Z,2.03
2023-08-03T07:26:04.580Z,2.42
2023-08-03T07:27:45.224Z,2.22
2023-08-03T07:29:26.250Z,1.96
2023-08-03T07:30:59.756Z,2.20
2023-08-03T07:32:44.663Z,2.04
2023-08-03T07:34:16.642Z,1.91
2023-08-03T07:35:47.740Z,2.38
2023-08-03T07:37:23.607Z,2.16
2023-08-03T07:39:08.736Z,2.35
2023-08-03T07:40:42.282Z,2.09
2023-08-03T07:42:23.170Z,2.19
2023-08-03T07:43:49.327Z,2.26
2023-08-03T07:46:59.035Z,2.19
2023-08-03T07:48:44.105Z,2.41
2023-08-03T07:50:25.391Z,2.14
2023-08-03T07:52:00.916Z,2.00
2023-08-03T07:53:46.170Z,2.41
2023-08-03T07:55:31.515Z,2.08
2023-08-03T07:57:16.638Z,1.98
2023-08-03T07:59:01.396Z,1.91
2023-08-03T08:00:37.887Z,1.89
2023-08-03T08:02:32.439Z,2.39
2023-08-03T08:04:07.930Z,1.93
2023-08-03T08:05:41.090Z,2.06
2023-08-03T08:07:14.921Z,2.09
2023-08-03T08:08:48.718Z,1.90
2023-08-03T08:10:22.219Z,2.19
2023-08-03T08:11:55.813Z,2.15
2023-08-03T08:13:45.599Z,2.06
2023-08-03T08:15:30.875Z,2.16
2023-08-03T08:17:13.919Z,2.13
2023-08-03T08:18:47.804Z,2.37
2023-08-03T08:20:32.720Z,2.23
2023-08-03T08:22:17.226Z,2.07
2023-08-03T08:23:58.736Z,2.03
2023-08-03T08:25:53.518Z,2.17
2023-08-03T08:27:39.293Z,1.83
2023-08-03T08:29:12.979Z,1.95
2023-08-03T08:30:46.260Z,2.48
2023-08-03T08:32:31.531Z,1.87
2023-08-03T08:34:05.240Z,2.12
2023-08-03T08:35:50.610Z,1.80
2023-08-03T08:37:36.875Z,2.08
2023-08-03T08:39:22.250Z,1.97
2023-08-03T08:40:44.012Z,1.90
2023-08-03T08:42:17.683Z,1.81
2023-08-03T08:43:51.065Z,2.01
2023-08-03T08:45:26.632Z,1.87
2023-08-03T08:47:12.192Z,2.16
2023-08-03T08:59:34.748Z,1.93
2023-08-03T09:01:20.434Z,1.97
2023-08-03T09:02:41.990Z,1.59
2023-08-03T09:07:19.109Z,1.63
2023-08-03T09:08:50.473Z,2.00
2023-08-03T09:10:23.772Z,1.49
2023-08-03T09:11:50.346Z,1.63
2023-08-03T09:13:35.436Z,2.04
2023-08-03T09:14:59.458Z,1.80
2023-08-03T09:16:38.217Z,1.90
2023-08-03T09:18:19.567Z,1.81
2023-08-03T09:24:45.230Z,1.49
2023-08-03T09:26:09.516Z,1.77
2023-08-03T09:29:28.512Z,1.75
2023-08-03T09:31:03.726Z,1.79
2023-08-03T09:34:42.836Z,1.58
2023-08-03T09:37:55.739Z,3.54
2023-08-03T09:39:42.041Z,3.32
2023-08-03T09:41:27.387Z,2.83
2023-08-03T09:42:51.522Z,2.76
2023-08-03T09:44:27.355Z,3.53
2023-08-03T09:45:49.217Z,3.74
2023-08-03T09:47:26.561Z,4.79
2023-08-03T09:50:27.343Z,1.51
2023-08-03T09:53:40.340Z,1.66
2023-08-03T09:55:13.884Z,1.54
2023-08-03T09:58:32.989Z,4.00
2023-08-03T09:59:59.421Z,2.88
2023-08-03T10:01:32.980Z,1.84
2023-08-03T10:03:13.796Z,1.66
2023-08-03T10:04:51.628Z,1.54
2023-08-03T10:06:17.963Z,1.69
2023-08-03T10:07:54.461Z,2.25
2023-08-03T10:09:27.983Z,3.67
2023-08-03T10:11:03.708Z,3.49
2023-08-03T10:12:39.331Z,2.01
2023-08-03T10:14:04.401Z,1.93
2023-08-03T10:15:38.608Z,1.76
2023-08-03T10:17:12.504Z,1.99
2023-08-03T10:20:28.504Z,1.95
2023-08-03T10:22:13.957Z,1.90
2023-08-03T10:23:39.703Z,1.73
2023-08-03T10:25:13.101Z,1.87
2023-08-03T10:26:49.127Z,2.27
2023-08-03T10:28:13.840Z,4.23
2023-08-03T10:29:38.351Z,3.42
2023-08-03T10:31:29.493Z,1.97
2023-08-03T10:33:14.592Z,3.13
2023-08-03T10:34:59.848Z,3.68
2023-08-03T10:36:53.916Z,4.24
2023-08-03T10:38:30.580Z,3.15
2023-08-03T10:40:01.605Z,2.54
2023-08-03T10:41:42.925Z,2.19
2023-08-03T10:43:28.078Z,2.66
2023-08-03T10:45:09.252Z,2.66
2023-08-03T10:46:54.465Z,1.96
2023-08-03T10:48:19.110Z,2.56
2023-08-03T10:49:58.001Z,2.13
2023-08-03T10:51:19.975Z,1.97
2023-08-03T10:52:55.480Z,1.86
2023-08-03T10:54:21.880Z,1.87
2023-08-03T10:55:56.579Z,1.88
2023-08-03T10:57:37.560Z,1.78
2023-08-03T10:59:10.942Z,1.99
2023-08-03T11:00:35.171Z,1.93
2023-08-03T11:02:28.848Z,2.18
2023-08-03T11:03:52.918Z,2.11
2023-08-03T11:05:38.468Z,1.97
2023-08-03T11:07:00.391Z,1.85
2023-08-03T11:08:29.943Z,1.92
2023-08-03T11:10:03.219Z,2.19
2023-08-03T11:11:36.686Z,2.75
2023-08-03T11:13:10.204Z,4.99
2023-08-03T11:14:46.502Z,4.24
2023-08-03T11:16:35.921Z,2.99
2023-08-03T11:17:59.601Z,2.16
2023-08-03T11:19:21.950Z,1.86
2023-08-03T11:20:55.446Z,2.23
2023-08-03T11:22:22.145Z,1.96
2023-08-03T11:23:55.586Z,1.85
2023-08-03T11:25:21.367Z,2.10
2023-08-03T11:27:02.047Z,2.46
2023-08-03T11:28:50.315Z,4.07
2023-08-03T11:30:31.179Z,2.39
2023-08-03T11:31:53.231Z,2.60
2023-08-03T11:33:38.523Z,3.65
2023-08-03T11:35:12.314Z,3.38
2023-08-03T11:36:45.924Z,5.47
2023-08-03T11:38:23.411Z,3.26
2023-08-03T11:40:05.064Z,2.19
2023-08-03T11:41:38.512Z,2.00
2023-08-03T11:43:11.779Z,1.95
2023-08-03T11:44:57.451Z,1.92
2023-08-03T11:46:43.452Z,2.79
2023-08-03T11:48:28.520Z,2.49
2023-08-03T11:50:04.137Z,2.08
2023-08-03T11:51:37.531Z,2.02
2023-08-03T11:53:24.312Z,2.10
2023-08-03T11:54:46.088Z,1.85
2023-08-03T11:56:12.857Z,2.13
2023-08-03T11:59:33.480Z,1.91
2023-08-03T12:01:18.789Z,2.14
2023-08-03T12:02:45.723Z,2.30
2023-08-03T12:04:22.789Z,2.80
2023-08-03T12:06:06.437Z,1.96
2023-08-03T12:09:29.922Z,1.75
2023-08-03T12:11:05.935Z,1.77
2023-08-03T12:12:36.028Z,2.23
2023-08-03T12:14:12.602Z,1.52
2023-08-03T12:15:46.177Z,1.98
2023-08-03T12:17:29.159Z,1.99
2023-08-03T12:19:13.536Z,1.56
2023-08-03T12:22:27.576Z,1.75
2023-08-03T12:24:03.133Z,1.60
2023-08-03T12:25:54.028Z,1.49
2023-08-03T12:27:30.254Z,1.46
2023-08-03T12:29:14.850Z,1.71
2023-08-03T12:30:57.306Z,1.58
2023-08-03T12:32:42.408Z,1.79
2023-08-03T12:34:15.616Z,1.48
2023-08-03T12:35:49.173Z,1.49
2023-08-03T12:37:24.850Z,1.28
2023-08-03T12:38:49.051Z,1.48
2023-08-03T12:40:10.838Z,1.47
2023-08-03T12:41:44.365Z,1.48
2023-08-03T12:43:25.785Z,1.45
2023-08-03T12:44:59.388Z,1.57
2023-08-03T12:46:25.991Z,1.65
2023-08-03T12:47:59.605Z,1.28
2023-08-03T12:49:37.179Z,1.46
2023-08-03T12:51:10.724Z,1.64
2023-08-03T12:52:55.522Z,1.25
2023-08-03T12:54:44.691Z,1.48
2023-08-03T12:56:08.586Z,1.65
2023-08-03T12:57:42.083Z,1.54
2023-08-03T12:59:16.100Z,1.73
2023-08-03T13:00:45.761Z,1.60
2023-08-03T13:02:19.820Z,1.65
2023-08-03T13:03:53.234Z,1.59
2023-08-03T13:05:40.486Z,1.43
2023-08-03T13:07:10.698Z,1.33
2023-08-03T13:08:40.542Z,1.43
2023-08-03T13:10:22.315Z,1.46
2023-08-03T13:11:52.020Z,1.74
2023-08-03T13:13:25.679Z,1.37
2023-08-03T13:15:10.480Z,1.59
2023-08-03T13:16:34.864Z,1.18
2023-08-03T13:18:08.854Z,1.81
2023-08-03T13:19:35.085Z,1.30
2023-08-03T13:21:29.445Z,1.50
2023-08-03T13:23:00.881Z,1.47
2023-08-03T13:24:36.459Z,1.44
2023-08-03T13:26:10.124Z,1.29
2023-08-03T13:27:38.891Z,1.39
2023-08-03T13:29:05.488Z,1.34
2023-08-03T13:30:27.328Z,1.48
2023-08-03T13:32:02.263Z,1.49
2023-08-03T13:33:37.235Z,1.58
2023-08-03T13:35:06.653Z,1.42
2023-08-03T13:36:51.465Z,1.22
2023-08-03T13:38:36.455Z,1.46
2023-08-03T13:40:10.159Z,1.59
2023-08-03T13:41:45.379Z,1.40
2023-08-03T13:43:34.733Z,1.28
2023-08-03T13:45:08.176Z,1.52
2023-08-03T13:46:30.222Z,1.32
2023-08-03T13:48:04.179Z,1.22
2023-08-03T13:49:45.294Z,1.30
2023-08-03T13:51:21.002Z,1.19
2023-08-03T13:52:42.653Z,1.37
2023-08-03T13:54:31.975Z,1.21
2023-08-03T13:56:07.413Z,1.27
2023-08-03T13:59:19.709Z,1.46
2023-08-03T14:01:14.255Z,1.23
2023-08-03T14:04:23.086Z,1.32
2023-08-03T14:09:25.122Z,1.39
2023-08-03T14:19:09.277Z,1.24
2023-08-03T14:22:17.027Z,1.31
2023-08-03T14:23:40.748Z,1.35
2023-08-03T14:26:46.555Z,1.20
2023-08-03T14:29:45.958Z,1.10
2023-08-03T14:31:30.516Z,1.40
2023-08-03T14:33:06.135Z,1.29
2023-08-03T14:36:13.985Z,1.45
2023-08-03T14:37:47.527Z,1.29
2023-08-03T14:39:24.111Z,1.17
2023-08-03T14:40:53.770Z,1.41
2023-08-03T14:42:40.492Z,1.31
2023-08-03T14:44:20.452Z,1.33
2023-08-03T14:45:47.367Z,1.49
2023-08-03T14:47:12.120Z,1.09
2023-08-03T14:48:38.342Z,1.12
2023-08-03T14:50:20.149Z,1.33
2023-08-03T14:53:51.520Z,1.17
2023-08-03T14:56:33.357Z,1.40
2023-08-03T14:57:23.955Z,1.27
2023-08-03T14:58:55.392Z,1.43
2023-08-03T15:00:19.160Z,1.55
2023-08-03T15:01:52.737Z,1.14
2023-08-03T15:03:30.072Z,1.35
2023-08-03T15:05:15.877Z,1.24
2023-08-03T15:06:51.759Z,1.20
2023-08-03T15:08:16.132Z,1.21
2023-08-03T15:09:49.584Z,1.20
2023-08-03T15:11:34.855Z,1.16
2023-08-03T15:13:10.910Z,1.36
2023-08-03T15:16:28.525Z,1.34
2023-08-03T15:17:58.512Z,1.23
2023-08-03T15:21:17.578Z,1.23
2023-08-03T15:22:59.500Z,1.35
2023-08-03T15:24:33.826Z,1.36
2023-08-03T15:26:07.711Z,1.32
2023-08-03T15:27:57.947Z,1.26
2023-08-03T15:29:28.121Z,1.25
2023-08-03T15:34:05.663Z,1.54
2023-08-03T15:35:42.990Z,1.36
2023-08-03T15:37:17.084Z,1.23
2023-08-03T15:38:39.541Z,1.09
2023-08-03T15:40:15.664Z,1.30
2023-08-03T15:42:02.187Z,1.35
2023-08-03T15:43:40.749Z,1.15
2023-08-03T15:45:24.722Z,1.47
2023-08-03T15:50:27.420Z,1.10
2023-08-03T15:52:09.670Z,1.25
2023-08-03T15:53:49.866Z,1.36
2023-08-03T15:57:27.390Z,1.30
2023-08-03T15:58:51.162Z,1.40
2023-08-03T16:00:27.082Z,1.58
2023-08-03T16:01:56.349Z,1.49
2023-08-03T16:03:25.808Z,1.33
2023-08-03T16:05:01.636Z,1.26
2023-08-03T16:06:37.469Z,1.43
2023-08-03T16:08:01.384Z,1.23
2023-08-03T16:09:37.059Z,1.31
2023-08-03T16:11:01.114Z,1.42
2023-08-03T16:12:41.546Z,1.59
2023-08-03T16:14:31.956Z,1.14
2023-08-03T16:15:54.169Z,1.25
2023-08-03T16:17:30.121Z,1.27
2023-08-03T16:19:05.625Z,1.30
2023-08-03T16:20:37.492Z,1.32
2023-08-03T16:22:11.131Z,1.40
2023-08-03T16:23:32.546Z,1.35
2023-08-03T16:25:18.286Z,1.25
2023-08-03T16:27:01.499Z,1.43
2023-08-03T16:28:37.343Z,1.54
2023-08-03T16:30:23.029Z,1.45
2023-08-03T16:32:15.730Z,1.30
2023-08-03T16:35:31.984Z,1.25
2023-08-03T16:37:12.903Z,1.22
2023-08-03T16:38:53.356Z,1.41
2023-08-03T16:40:27.107Z,1.38
2023-08-03T16:41:50.887Z,1.38
2023-08-03T16:43:36.327Z,1.29
2023-08-03T16:45:21.814Z,1.32
2023-08-03T16:47:07.248Z,1.29
2023-08-03T16:48:50.177Z,1.37
2023-08-03T16:50:23.888Z,1.31
2023-08-03T16:52:08.730Z,1.40
2023-08-03T16:53:42.508Z,1.46
2023-08-03T16:55:37.506Z,1.75
2023-08-03T16:57:27.533Z,1.39
2023-08-03T16:59:21.521Z,1.44
2023-08-03T17:00:55.361Z,1.33
2023-08-03T17:02:24.740Z,1.45
2023-08-03T17:04:04.885Z,1.50
2023-08-03T17:05:57.225Z,1.37
2023-08-03T17:07:43.283Z,1.22
2023-08-03T17:09:28.340Z,1.48
2023-08-03T17:11:01.938Z,1.38
2023-08-03T17:12:26.347Z,1.18
2023-08-03T17:13:59.670Z,1.30
2023-08-03T17:15:21.847Z,1.31
2023-08-03T17:16:54.836Z,1.29
2023-08-03T17:18:26.893Z,1.16
2023-08-03T17:20:11.791Z,1.37
2023-08-03T17:21:44.776Z,1.59
2023-08-03T17:23:18.166Z,1.12
2023-08-03T17:24:59.178Z,1.35
2023-08-03T17:26:25.395Z,1.43
2023-08-03T17:27:49.661Z,1.60
2023-08-03T17:29:23.803Z,1.30
2023-08-03T17:30:59.580Z,1.40
2023-08-03T17:32:24.457Z,1.35
2023-08-03T17:33:46.241Z,1.25
2023-08-03T17:35:19.936Z,1.32
2023-08-03T17:36:54.726Z,1.52
2023-08-03T17:38:28.042Z,1.70
2023-08-03T17:40:01.467Z,1.48
2023-08-03T17:41:47.844Z,1.40
2023-08-03T17:43:42.521Z,1.28
2023-08-03T17:45:18.282Z,1.34
2023-08-03T17:46:53.576Z,1.45
2023-08-03T17:48:29.876Z,1.69
2023-08-03T17:50:06.643Z,1.62
2023-08-03T17:51:40.181Z,1.72
2023-08-03T17:53:25.231Z,1.59
2023-08-03T17:55:10.256Z,1.45
2023-08-03T17:56:34.751Z,1.83
2023-08-03T17:58:10.122Z,1.64
2023-08-03T17:59:54.900Z,1.63
2023-08-03T18:01:28.793Z,1.62
2023-08-03T18:03:02.215Z,1.87
2023-08-03T18:04:35.650Z,1.70
2023-08-03T18:06:09.254Z,1.55
2023-08-03T18:08:03.536Z,1.39
2023-08-03T18:09:33.954Z,1.66
2023-08-03T18:11:07.643Z,1.65
2023-08-03T18:12:52.430Z,1.62
2023-08-03T18:14:27.396Z,1.37
2023-08-03T18:16:02.782Z,1.86
2023-08-03T18:17:29.340Z,1.57
2023-08-03T18:18:52.907Z,1.58
2023-08-03T18:20:26.760Z,1.46
2023-08-03T18:21:52.321Z,1.56
2023-08-03T18:23:14.379Z,1.58
2023-08-03T18:24:47.650Z,1.71
2023-08-03T18:26:33.036Z,1.58
2023-08-03T18:27:59.628Z,1.93
2023-08-03T18:29:36.680Z,1.63
2023-08-03T18:31:10.502Z,1.73
2023-08-03T18:32:55.912Z,1.66
2023-08-03T18:34:20.198Z,1.48
2023-08-03T18:35:54.069Z,1.51
2023-08-03T18:37:17.026Z,1.54
2023-08-03T18:38:43.693Z,1.76
2023-08-03T18:40:29.129Z,1.56
2023-08-03T18:42:15.052Z,1.59
2023-08-03T18:43:55.422Z,1.58
2023-08-03T18:45:22.126Z,1.51
2023-08-03T18:46:55.593Z,1.68
2023-08-03T18:48:31.676Z,1.52
2023-08-03T18:50:05.065Z,1.66
2023-08-03T18:51:40.876Z,1.46
2023-08-03T18:53:09.809Z,1.86
2023-08-03T18:54:33.970Z,1.40
2023-08-03T18:56:00.427Z,1.86
2023-08-03T18:57:24.933Z,1.91
2023-08-03T18:58:46.619Z,1.81
2023-08-03T19:00:22.123Z,1.49
2023-08-03T19:01:45.876Z,1.57
2023-08-03T19:03:07.845Z,1.57
2023-08-03T19:04:34.107Z,1.71
2023-08-03T19:05:56.180Z,1.93
2023-08-03T19:07:20.590Z,2.00
2023-08-03T19:08:41.999Z,1.94
2023-08-03T19:10:15.513Z,1.92
2023-08-03T19:11:56.467Z,1.93
2023-08-03T19:13:30.079Z,1.83
2023-08-03T19:14:51.710Z,1.97
2023-08-03T19:16:13.817Z,1.68
2023-08-03T19:17:50.110Z,1.88
2023-08-03T19:19:14.665Z,1.81
2023-08-03T19:20:36.699Z,1.86
2023-08-03T19:22:10.297Z,2.25
2023-08-03T19:23:32.237Z,2.21
2023-08-03T19:25:01.592Z,1.74
2023-08-03T19:26:35.171Z,1.91
2023-08-03T19:29:35.459Z,1.79
2023-08-03T19:31:11.054Z,1.83
2023-08-03T19:32:51.860Z,1.52
2023-08-03T19:34:34.171Z,1.78
2023-08-03T19:35:58.523Z,1.80
2023-08-03T19:37:33.478Z,1.93
2023-08-03T19:39:06.756Z,1.80
2023-08-03T19:40:28.496Z,2.03
2023-08-03T19:42:05.296Z,1.97
2023-08-03T19:43:31.765Z,1.94
2023-08-03T19:45:08.425Z,1.82
2023-08-03T19:46:49.140Z,1.89
2023-08-03T19:48:30.371Z,2.09
2023-08-03T20:00:51.647Z,1.67
2023-08-03T20:07:37.906Z,1.82
2023-08-03T20:09:12.445Z,1.75
2023-08-03T20:10:56.104Z,1.88
2023-08-03T20:14:05.608Z,1.93
2023-08-03T20:15:52.035Z,1.90
2023-08-03T20:20:20.376Z,1.95
2023-08-03T20:21:54.421Z,1.47
2023-08-03T20:23:35.176Z,1.93
2023-08-03T20:25:02.751Z,1.73
2023-08-03T20:26:44.085Z,1.77
2023-08-03T20:28:26.115Z,1.62
2023-08-03T20:30:00.562Z,2.04
2023-08-03T20:31:23.550Z,1.63
2023-08-03T20:33:08.360Z,1.82
2023-08-03T20:34:30.131Z,1.64
2023-08-03T20:37:35.364Z,1.85
2023-08-03T20:40:48.426Z,1.89
2023-08-03T20:43:39.267Z,1.80
2023-08-03T20:45:01.358Z,1.84
2023-08-03T20:49:31.327Z,2.01
2023-08-03T20:51:04.688Z,1.75
2023-08-03T20:52:29.000Z,1.77
2023-08-03T20:55:37.812Z,1.81
2023-08-03T20:56:59.820Z,1.60
2023-08-03T20:58:34.087Z,1.69
2023-08-03T21:01:44.190Z,1.97
2023-08-03T21:03:18.023Z,2.02
2023-08-03T21:04:51.831Z,1.94
2023-08-03T21:06:14.043Z,1.71
2023-08-03T21:07:40.435Z,2.06
2023-08-03T21:09:10.119Z,2.28
2023-08-03T21:11:59.362Z,2.08
2023-08-03T21:13:21.351Z,1.77
2023-08-03T21:14:49.837Z,1.68
2023-08-03T21:16:13.955Z,1.94
2023-08-03T21:17:50.638Z,2.03
2023-08-03T21:19:20.066Z,1.87
2023-08-03T21:20:41.911Z,1.98
2023-08-03T21:22:11.041Z,1.80
2023-08-03T21:23:40.443Z,1.98
2023-08-03T21:25:14.260Z,2.02
2023-08-03T21:26:38.745Z,1.81
2023-08-03T21:28:13.239Z,2.09
2023-08-03T21:29:35.140Z,1.98
2023-08-03T21:30:58.769Z,1.79
2023-08-03T21:32:22.274Z,1.83
2023-08-03T21:33:46.362Z,1.73
2023-08-03T21:35:10.675Z,1.79
2023-08-03T21:36:32.600Z,2.00
2023-08-03T21:38:01.803Z,1.97
2023-08-03T21:39:31.112Z,1.97
2023-08-03T21:40:54.964Z,2.26
2023-08-03T21:42:29.168Z,2.25
2023-08-03T21:44:09.534Z,1.99
2023-08-03T21:45:34.058Z,1.89
2023-08-03T21:46:57.825Z,2.08
2023-08-03T21:48:26.696Z,2.00
2023-08-03T21:49:48.630Z,1.88
2023-08-03T21:51:18.501Z,1.98
2023-08-03T21:52:42.778Z,2.15
2023-08-03T21:54:19.093Z,2.00
2023-08-03T21:55:40.419Z,1.91
2023-08-03T21:57:09.693Z,1.89
2023-08-03T21:58:31.655Z,1.93
2023-08-03T21:59:55.219Z,1.88
2023-08-03T22:01:17.234Z,2.03
2023-08-03T22:02:41.255Z,2.16
2023-08-03T22:04:03.722Z,1.95
2023-08-03T22:05:25.987Z,1.89
2023-08-03T22:06:48.586Z,2.05
2023-08-03T22:08:11.800Z,1.79
2023-08-03T22:09:35.696Z,2.20
2023-08-03T22:10:57.733Z,2.23
2023-08-03T22:12:19.939Z,2.17
2023-08-03T22:13:53.057Z,2.20
2023-08-03T22:15:17.533Z,2.17
2023-08-03T22:16:41.982Z,1.82
2023-08-03T22:18:04.417Z,1.90
2023-08-03T22:19:45.223Z,2.01
2023-08-03T22:21:10.047Z,1.97
2023-08-03T22:22:43.706Z,2.35
2023-08-03T22:24:05.917Z,2.19
2023-08-03T22:25:27.983Z,1.92
2023-08-03T22:26:56.914Z,2.19
2023-08-03T22:28:18.670Z,2.19
2023-08-03T22:29:40.069Z,2.02
2023-08-03T22:31:02.017Z,1.93
2023-08-03T22:32:24.135Z,2.25
2023-08-03T22:33:45.865Z,2.00
2023-08-03T22:35:10.225Z,2.00
2023-08-03T22:36:33.307Z,2.29
2023-08-03T22:37:55.206Z,2.03
2023-08-03T22:39:36.412Z,2.22
2023-08-03T22:41:00.521Z,2.12
2023-08-03T22:42:22.821Z,2.36
2023-08-03T22:44:04.143Z,2.33
2023-08-03T22:45:26.849Z,2.16
2023-08-03T22:46:50.898Z,1.91
2023-08-03T22:48:13.118Z,2.24
2023-08-03T22:49:35.188Z,1.78
2023-08-03T22:50:59.663Z,1.83
2023-08-03T22:52:22.214Z,2.15
2023-08-03T22:53:52.844Z,2.24
2023-08-03T22:55:15.262Z,2.00
2023-08-03T22:56:39.099Z,2.27